Time;durP1;ratioP1;P1;durP2;ratioP2;P2;SDS_P1;SDS_P2;PMS_P1;PMS_P2;Temp;Humidity;BMP_temperature;BMP_pressure;BME280_temperature;BME280_humidity;BME280_pressure;Samples;Min_cycle;Max_cycle;Signal;HPM_P1;HPM_P2
2023/06/29 00:00:21;;;;;;;7.43;6.40;;;;;;;18.63;100.00;101694.09;5014508;28;20221;-76
2023/06/29 00:02:48;;;;;;;7.83;7.07;;;;;;;18.60;100.00;101696.66;5030981;28;20340;-75
2023/06/29 00:05:14;;;;;;;9.60;7.60;;;;;;;18.68;100.00;101691.47;5028987;28;20190;-75
2023/06/29 00:07:40;;;;;;;8.37;7.00;;;;;;;18.64;100.00;101695.81;5035741;28;20217;-75
2023/06/29 00:10:07;;;;;;;7.87;7.17;;;;;;;18.61;100.00;101693.19;5030709;28;20210;-75
2023/06/29 00:12:33;;;;;;;8.30;7.50;;;;;;;18.57;100.00;101694.06;5034861;28;20209;-74
2023/06/29 00:14:58;;;;;;;8.43;7.53;;;;;;;18.55;100.00;101695.81;5036240;28;20197;-75
2023/06/29 00:17:24;;;;;;;8.63;7.67;;;;;;;18.57;100.00;101683.69;5038826;28;20635;-77
2023/06/29 00:19:49;;;;;;;8.43;7.63;;;;;;;18.54;100.00;101693.19;5031583;28;20671;-74
2023/06/29 00:22:18;;;;;;;8.90;8.00;;;;;;;18.51;100.00;101726.94;5029430;28;20253;-74
2023/06/29 00:24:44;;;;;;;8.73;7.83;;;;;;;18.45;100.00;101701.84;5034861;28;20225;-76
2023/06/29 00:27:14;;;;;;;9.60;8.70;;;;;;;18.42;100.00;101691.47;5030817;28;20245;-75
2023/06/29 00:29:41;;;;;;;9.83;8.90;;;;;;;18.46;100.00;101692.31;5031671;28;20191;-74
2023/06/29 00:32:10;;;;;;;9.63;8.63;;;;;;;18.47;100.00;101688.88;5030520;28;20194;-76
2023/06/29 00:34:37;;;;;;;12.17;9.00;;;;;;;18.41;100.00;101683.66;5034881;28;20280;-76
2023/06/29 00:37:03;;;;;;;10.27;8.73;;;;;;;18.42;100.00;101678.50;5038825;28;20219;-76
2023/06/29 00:39:28;;;;;;;10.33;8.63;;;;;;;18.41;100.00;101679.38;5031373;28;20237;-75
2023/06/29 00:41:55;;;;;;;11.30;9.27;;;;;;;18.39;100.00;101677.63;5013756;28;20202;-75
2023/06/29 00:44:21;;;;;;;10.80;9.70;;;;;;;18.33;100.00;101675.03;5038211;28;20230;-76
2023/06/29 00:46:47;;;;;;;9.80;8.80;;;;;;;18.37;100.00;101672.44;5029921;28;20237;-76
2023/06/29 00:49:14;;;;;;;11.83;9.83;;;;;;;18.35;100.00;101673.31;5019172;28;20210;-77
2023/06/29 00:51:41;;;;;;;10.53;9.30;;;;;;;18.35;100.00;101675.91;5026972;28;20737;-74
2023/06/29 00:54:06;;;;;;;10.53;9.57;;;;;;;18.33;100.00;101673.28;5034442;28;20583;-74
2023/06/29 00:56:33;;;;;;;11.70;10.50;;;;;;;18.34;100.00;101664.63;5031900;28;20214;-74
2023/06/29 00:58:59;;;;;;;10.90;9.90;;;;;;;18.38;100.00;101661.19;5032483;28;20356;-74
2023/06/29 01:01:27;;;;;;;11.97;10.10;;;;;;;18.38;100.00;101662.94;5031242;28;20639;-74
2023/06/29 01:03:57;;;;;;;10.57;9.47;;;;;;;18.44;100.00;101658.63;5031094;28;20186;-74
2023/06/29 01:06:31;;;;;;;9.97;8.97;;;;;;;18.47;100.00;101658.59;5028809;28;20214;-74
2023/06/29 01:09:07;;;;;;;11.80;9.33;;;;;;;18.48;100.00;101652.56;5029240;28;20193;-74
2023/06/29 01:11:37;;;;;;;10.23;9.33;;;;;;;18.49;100.00;101654.31;5019818;28;20198;-74
2023/06/29 01:14:10;;;;;;;11.07;9.97;;;;;;;18.43;100.00;101643.91;5027548;28;20194;-74
2023/06/29 01:16:36;;;;;;;13.67;11.80;;;;;;;18.42;100.00;101639.59;5033173;28;20977;-74
2023/06/29 01:19:07;;;;;;;11.80;10.60;;;;;;;18.44;100.00;101648.25;5029126;28;20210;-74
2023/06/29 01:21:41;;;;;;;13.13;11.83;;;;;;;18.44;100.00;101647.38;5041332;28;20186;-75
2023/06/29 01:24:08;;;;;;;13.00;11.70;;;;;;;18.44;100.00;101643.06;5030433;28;20280;-75
2023/06/29 01:26:38;;;;;;;12.27;11.13;;;;;;;18.44;100.00;101637.88;5035542;28;20299;-74
2023/06/29 01:29:04;;;;;;;12.77;11.67;;;;;;;18.42;100.00;101633.56;5030505;28;20606;-74
2023/06/29 01:31:32;;;;;;;14.07;12.60;;;;;;;18.40;100.00;101632.66;5028249;28;20544;-74
2023/06/29 01:33:58;;;;;;;14.37;12.97;;;;;;;18.37;100.00;101636.13;5012635;28;20209;-75
2023/06/29 01:36:37;;;;;;;13.67;12.43;;;;;;;18.40;100.00;101633.53;5029165;28;20220;-74
2023/06/29 01:39:20;;;;;;;15.43;13.17;;;;;;;18.35;100.00;101637.00;5029105;28;20218;-75
2023/06/29 01:41:47;;;;;;;15.77;14.17;;;;;;;18.32;100.00;101635.22;5029311;28;20186;-74
2023/06/29 01:44:15;;;;;;;16.30;14.80;;;;;;;18.33;100.00;101628.34;5029012;28;20236;-74
2023/06/29 01:46:41;;;;;;;15.97;14.40;;;;;;;18.31;100.00;101632.63;5012321;28;20300;-74
2023/06/29 01:49:07;;;;;;;16.93;15.23;;;;;;;18.30;100.00;101630.91;5028185;28;20660;-75
2023/06/29 01:51:32;;;;;;;18.07;16.27;;;;;;;18.27;100.00;101630.91;5030031;28;20848;-74
2023/06/29 01:54:01;;;;;;;18.60;16.73;;;;;;;18.17;100.00;101621.38;5008901;28;20232;-76
2023/06/29 01:56:26;;;;;;;19.60;16.97;;;;;;;18.16;100.00;101622.25;5028792;28;20639;-74
2023/06/29 01:58:52;;;;;;;19.30;17.23;;;;;;;18.16;100.00;101628.31;5015540;28;20205;-75
2023/06/29 02:01:17;;;;;;;21.60;18.17;;;;;;;18.10;100.00;101619.66;5028482;28;20202;-75
2023/06/29 02:03:43;;;;;;;19.20;17.20;;;;;;;18.09;100.00;101623.97;5033871;28;20275;-75
2023/06/29 02:06:08;;;;;;;20.00;17.90;;;;;;;18.16;100.00;101624.84;5022510;28;20272;-75
2023/06/29 02:08:37;;;;;;;20.73;18.80;;;;;;;18.22;100.00;101624.84;5038388;28;20186;-76
2023/06/29 02:11:03;;;;;;;20.60;18.73;;;;;;;18.20;100.00;101627.44;5025223;28;20209;-75
2023/06/29 02:13:29;;;;;;;20.77;18.73;;;;;;;18.20;100.00;101626.56;5028648;28;20190;-75
2023/06/29 02:15:54;;;;;;;22.10;18.87;;;;;;;18.17;100.00;101627.44;5013334;28;20191;-75
2023/06/29 02:18:20;;;;;;;20.83;18.83;;;;;;;18.21;100.00;101621.41;5030643;28;20717;-77
2023/06/29 02:20:45;;;;;;;22.47;20.30;;;;;;;18.20;100.00;101624.00;5036170;28;20193;-74
2023/06/29 02:23:11;;;;;;;22.10;19.90;;;;;;;18.20;100.00;101622.25;5020739;28;20904;-76
2023/06/29 02:25:36;;;;;;;22.63;20.33;;;;;;;18.17;100.00;101627.44;5012780;28;20252;-75
2023/06/29 02:28:02;;;;;;;22.77;20.60;;;;;;;18.12;100.00;101613.63;5029157;28;20746;-75
2023/06/29 02:30:27;;;;;;;23.60;21.07;;;;;;;18.09;100.00;101617.91;5029534;28;20186;-75
2023/06/29 02:32:53;;;;;;;23.37;20.97;;;;;;;18.05;100.00;101622.22;5029611;28;20186;-75
2023/06/29 02:35:18;;;;;;;23.40;21.10;;;;;;;18.03;100.00;101621.38;5026465;28;20614;-76
2023/06/29 02:37:44;;;;;;;23.07;20.87;;;;;;;17.98;100.00;101619.63;5026331;28;20214;-75
2023/06/29 02:40:10;;;;;;;24.60;22.17;;;;;;;18.02;100.00;101626.56;5011416;28;20216;-76
2023/06/29 02:42:36;;;;;;;23.37;21.27;;;;;;;18.05;100.00;101622.22;5027819;28;20222;-75
2023/06/29 02:45:02;;;;;;;23.67;21.37;;;;;;;18.05;100.00;101619.63;5027985;28;20702;-75
2023/06/29 02:47:29;;;;;;;23.67;21.43;;;;;;;18.03;100.00;101616.19;5027356;28;20268;-77
2023/06/29 02:49:59;;;;;;;22.97;20.77;;;;;;;18.08;100.00;101647.28;5038850;28;20695;-74
2023/06/29 02:52:26;;;;;;;23.17;21.07;;;;;;;18.06;100.00;101633.47;5025931;28;20194;-75
2023/06/29 02:54:52;;;;;;;23.90;21.37;;;;;;;18.02;100.00;101630.03;5016673;28;20192;-75
2023/06/29 02:57:17;;;;;;;22.77;20.50;;;;;;;18.06;100.00;101625.69;5009374;28;20210;-77
2023/06/29 02:59:43;;;;;;;23.97;21.57;;;;;;;18.07;100.00;101625.72;5027453;28;20202;-77
2023/06/29 03:02:09;;;;;;;23.60;21.20;;;;;;;18.06;100.00;101623.09;5025851;28;20222;-75
2023/06/29 03:04:34;;;;;;;24.13;21.83;;;;;;;18.04;100.00;101617.03;5024453;28;20747;-75
2023/06/29 03:07:00;;;;;;;24.60;21.87;;;;;;;18.06;100.00;101620.50;5029676;28;20213;-76
2023/06/29 03:09:25;;;;;;;24.03;21.60;;;;;;;18.02;100.00;101619.66;5008655;28;20187;-75
2023/06/29 03:11:50;;;;;;;23.97;21.70;;;;;;;18.05;100.00;101614.44;5026369;28;20340;-76
2023/06/29 03:14:16;;;;;;;23.27;20.93;;;;;;;18.08;100.00;101606.69;5027617;28;20201;-77
2023/06/29 03:16:42;;;;;;;25.07;22.57;;;;;;;18.11;100.00;101605.81;5027283;28;20685;-74
2023/06/29 03:19:07;;;;;;;22.97;20.80;;;;;;;18.13;100.00;101612.75;5032802;28;20260;-75
2023/06/29 03:21:33;;;;;;;23.90;21.40;;;;;;;18.15;100.00;101625.72;5026196;28;20331;-75
2023/06/29 03:23:58;;;;;;;24.03;21.70;;;;;;;18.09;100.00;101613.59;5010753;28;20209;-77
2023/06/29 03:26:24;;;;;;;24.30;21.90;;;;;;;18.13;100.00;101606.69;5027295;28;20206;-75
2023/06/29 03:28:49;;;;;;;23.63;21.47;;;;;;;18.10;100.00;101607.53;5029248;28;20555;-75
2023/06/29 03:31:15;;;;;;;24.63;22.23;;;;;;;18.09;100.00;101602.34;5043018;28;20198;-76
2023/06/29 03:33:40;;;;;;;24.97;22.60;;;;;;;18.11;100.00;101606.72;5036746;28;20198;-75
2023/06/29 03:36:09;;;;;;;25.30;23.00;;;;;;;18.12;100.00;101607.56;5032581;28;20214;-75
2023/06/29 03:38:35;;;;;;;25.47;22.97;;;;;;;18.07;100.00;101604.97;5026001;28;20308;-75
2023/06/29 03:41:00;;;;;;;27.13;23.93;;;;;;;18.09;100.00;101599.75;5031191;28;20258;-75
2023/06/29 03:43:26;;;;;;;26.00;23.50;;;;;;;18.09;100.00;101602.34;5033585;28;20605;-75
2023/06/29 03:45:51;;;;;;;26.33;23.73;;;;;;;18.11;100.00;101598.94;5029176;28;20216;-75
2023/06/29 03:48:17;;;;;;;24.57;22.13;;;;;;;18.11;100.00;101595.47;5037013;28;20200;-79
2023/06/29 03:50:42;;;;;;;25.50;23.00;;;;;;;18.09;100.00;101598.03;5036624;28;20236;-75
2023/06/29 03:53:08;;;;;;;25.13;22.70;;;;;;;18.13;100.00;101599.78;5033397;28;20216;-75
2023/06/29 03:55:33;;;;;;;25.63;23.23;;;;;;;18.05;100.00;101598.06;5030847;28;20204;-75
2023/06/29 03:57:59;;;;;;;26.03;23.63;;;;;;;18.11;100.00;101598.06;5014621;28;20571;-75
2023/06/29 04:00:25;;;;;;;25.73;23.20;;;;;;;18.14;100.00;101592.88;5031909;28;20217;-75
2023/06/29 04:02:51;;;;;;;27.20;24.50;;;;;;;18.07;100.00;101588.53;5042849;28;20293;-75
2023/06/29 04:05:16;;;;;;;27.20;24.50;;;;;;;18.15;100.00;101586.81;5037901;28;20198;-75
2023/06/29 04:07:42;;;;;;;28.20;25.40;;;;;;;18.19;100.00;101586.81;5030968;28;20262;-76
2023/06/29 04:10:07;;;;;;;27.70;25.00;;;;;;;18.16;100.00;101585.94;5031884;28;20698;-75
2023/06/29 04:12:33;;;;;;;28.37;25.40;;;;;;;18.20;100.00;101587.69;5032837;28;20565;-76
2023/06/29 04:14:58;;;;;;;26.97;24.37;;;;;;;18.17;100.00;101591.16;5036228;28;20201;-75
2023/06/29 04:17:24;;;;;;;29.23;26.27;;;;;;;18.21;100.00;101586.81;5030562;28;20214;-75
2023/06/29 04:19:49;;;;;;;29.03;26.17;;;;;;;18.24;100.00;101586.81;5015639;28;20210;-76
2023/06/29 04:22:15;;;;;;;29.50;26.40;;;;;;;18.24;100.00;101587.66;5030836;28;20237;-75
2023/06/29 04:24:40;;;;;;;28.53;25.53;;;;;;;18.20;100.00;101585.94;5031897;28;20186;-76
2023/06/29 04:27:06;;;;;;;28.67;25.77;;;;;;;18.22;100.00;101586.81;5035257;28;20917;-76
2023/06/29 04:29:32;;;;;;;27.83;25.23;;;;;;;18.20;100.00;101591.13;5032956;28;20565;-76
2023/06/29 04:31:58;;;;;;;28.03;25.27;;;;;;;18.16;100.00;101588.53;5028997;28;20277;-75
2023/06/29 04:34:23;;;;;;;27.37;24.70;;;;;;;18.17;100.00;101582.50;5032904;28;20198;-75
2023/06/29 04:36:48;;;;;;;27.77;25.03;;;;;;;18.21;100.00;101581.63;5036767;28;20214;-75
2023/06/29 04:39:14;;;;;;;27.63;24.93;;;;;;;18.23;100.00;101577.31;5029003;28;20249;-75
2023/06/29 04:41:41;;;;;;;29.40;26.50;;;;;;;18.13;100.00;101584.22;5029037;28;20182;-74
2023/06/29 04:44:10;;;;;;;27.20;24.50;;;;;;;18.17;100.00;101574.72;5036182;28;20540;-75
2023/06/29 04:46:40;;;;;;;27.70;24.97;;;;;;;18.27;100.00;101576.44;5029369;28;20219;-74
2023/06/29 04:49:06;;;;;;;29.27;26.40;;;;;;;18.24;100.00;101579.03;5029406;28;20225;-75
2023/06/29 04:51:38;;;;;;;29.10;26.00;;;;;;;18.22;100.00;101573.84;5036161;28;20651;-74
2023/06/29 04:54:07;;;;;;;26.60;23.90;;;;;;;18.26;100.00;101575.59;5030877;28;20668;-77
2023/06/29 04:56:32;;;;;;;27.53;24.83;;;;;;;18.35;100.00;101565.25;5035325;28;20206;-75
2023/06/29 04:58:58;;;;;;;28.73;25.83;;;;;;;18.34;100.00;101566.09;5031017;28;20223;-76
2023/06/29 05:01:24;;;;;;;27.10;24.50;;;;;;;18.35;100.00;101561.78;5037441;28;21011;-76
2023/06/29 05:03:49;;;;;;;27.37;24.33;;;;;;;18.38;100.00;101565.22;5034603;28;20702;-74
2023/06/29 05:06:15;;;;;;;28.43;25.67;;;;;;;18.40;100.00;101565.22;5031175;28;20218;-74
2023/06/29 05:08:40;;;;;;;28.33;25.63;;;;;;;18.40;100.00;101565.22;5016475;28;20186;-75
2023/06/29 05:11:06;;;;;;;26.77;24.07;;;;;;;18.46;100.00;101568.69;5041145;28;20263;-75
2023/06/29 05:13:35;;;;;;;27.37;24.57;;;;;;;18.49;100.00;101560.91;5037516;28;20584;-75
2023/06/29 05:16:02;;;;;;;28.27;25.37;;;;;;;18.49;100.00;101580.78;5032828;28;20230;-74
2023/06/29 05:18:27;;;;;;;28.17;25.47;;;;;;;18.48;100.00;101569.56;5030724;28;20252;-75
2023/06/29 05:20:53;;;;;;;26.67;24.17;;;;;;;18.56;100.00;101572.16;5036823;28;20668;-75
2023/06/29 05:23:18;;;;;;;26.90;24.33;;;;;;;18.60;100.00;101566.94;5030760;28;20205;-74
2023/06/29 05:25:44;;;;;;;26.20;23.10;;;;;;;18.63;100.00;101566.94;5034540;28;20201;-75
2023/06/29 05:28:09;;;;;;;25.73;23.20;;;;;;;18.69;100.00;101566.91;5034481;28;20272;-75
2023/06/29 05:30:35;;;;;;;25.40;22.73;;;;;;;18.68;100.00;101570.38;5031339;28;20190;-76
2023/06/29 05:33:01;;;;;;;24.43;22.03;;;;;;;18.68;100.00;101572.97;5030261;28;20568;-76
2023/06/29 05:35:26;;;;;;;24.77;22.37;;;;;;;18.70;100.00;101568.63;5038543;28;20273;-76
2023/06/29 05:37:52;;;;;;;24.27;21.83;;;;;;;18.73;100.00;101576.44;5030427;28;20214;-75
2023/06/29 05:40:17;;;;;;;23.03;20.80;;;;;;;18.84;100.00;101568.63;5037468;28;20228;-76
2023/06/29 05:42:43;;;;;;;24.17;21.67;;;;;;;18.86;100.00;101566.88;5031030;28;20217;-76
2023/06/29 05:45:09;;;;;;;24.03;21.53;;;;;;;18.87;100.00;101564.28;5029221;28;20202;-74
2023/06/29 05:47:34;;;;;;;23.17;20.83;;;;;;;18.91;100.00;101571.19;5040908;28;20213;-74
2023/06/29 05:50:00;;;;;;;22.10;19.90;;;;;;;18.95;100.00;101565.13;5034404;28;20640;-75
2023/06/29 05:52:25;;;;;;;21.80;19.43;;;;;;;18.98;100.00;101559.91;5024233;28;20194;-76
2023/06/29 05:54:51;;;;;;;23.23;20.90;;;;;;;18.92;100.00;101567.72;5028190;28;20190;-76
2023/06/29 05:57:16;;;;;;;23.43;20.87;;;;;;;18.79;100.00;101568.63;5020847;28;20213;-75
2023/06/29 05:59:42;;;;;;;22.70;20.50;;;;;;;18.81;100.00;101566.91;5027064;28;20838;-75
2023/06/29 06:02:08;;;;;;;23.63;21.33;;;;;;;18.82;100.00;101565.16;5042504;28;20207;-74
2023/06/29 06:04:35;;;;;;;24.20;20.53;;;;;;;18.82;100.00;101568.63;5049271;28;20191;-73
2023/06/29 06:07:01;;;;;;;22.27;20.07;;;;;;;18.89;100.00;101564.28;5034132;28;20226;-75
2023/06/29 06:09:27;;;;;;;21.90;19.70;;;;;;;18.99;100.00;101565.97;5040824;28;20625;-74
2023/06/29 06:11:54;;;;;;;20.93;18.83;;;;;;;19.03;100.00;101565.94;5035415;28;20190;-77
2023/06/29 06:14:20;;;;;;;20.20;18.20;;;;;;;19.11;100.00;101560.75;5027873;28;20277;-76
2023/06/29 06:16:45;;;;;;;19.60;17.53;;;;;;;19.20;100.00;101561.56;5029828;28;20288;-76
2023/06/29 06:19:11;;;;;;;19.80;17.87;;;;;;;19.15;100.00;101568.50;5017364;28;20225;-75
2023/06/29 06:21:36;;;;;;;20.47;17.97;;;;;;;19.23;100.00;101555.53;5030040;28;20209;-76
2023/06/29 06:24:02;;;;;;;19.93;17.83;;;;;;;19.19;100.00;101561.56;5036465;28;20681;-76
2023/06/29 06:26:28;;;;;;;19.37;17.07;;;;;;;19.29;100.00;101564.16;5035502;28;20598;-75
2023/06/29 06:28:53;;;;;;;19.43;17.50;;;;;;;19.23;100.00;101564.19;5041929;28;20281;-74
2023/06/29 06:31:19;;;;;;;19.10;16.90;;;;;;;19.33;100.00;101560.69;5031170;28;20209;-75
2023/06/29 06:33:45;;;;;;;19.47;16.90;;;;;;;19.37;100.00;101567.59;5017147;28;20277;-74
2023/06/29 06:36:11;;;;;;;20.20;16.60;;;;;;;19.40;100.00;101558.91;5035504;28;20247;-75
2023/06/29 06:38:36;;;;;;;20.23;17.03;;;;;;;19.44;100.00;101558.03;5033947;28;22027;-75
2023/06/29 06:41:02;;;;;;;22.60;17.47;;;;;;;19.45;100.00;101555.44;5027961;28;20202;-73
2023/06/29 06:43:27;;;;;;;20.50;17.27;;;;;;;19.53;100.00;101553.63;5027513;28;20234;-75
2023/06/29 06:45:52;;;;;;;18.40;15.63;;;;;;;19.77;100.00;101552.63;5027412;28;20222;-75
2023/06/29 06:48:18;;;;;;;22.07;16.47;;;;;;;19.92;100.00;101550.78;5028604;28;20194;-74
2023/06/29 06:50:44;;;;;;;17.97;16.17;;;;;;;19.87;100.00;101547.38;5032852;28;20205;-74
2023/06/29 06:53:10;;;;;;;17.90;15.73;;;;;;;19.83;100.00;101549.97;5036008;28;20662;-74
2023/06/29 06:55:35;;;;;;;19.67;15.73;;;;;;;20.04;100.00;101548.06;5024667;28;20255;-75
2023/06/29 06:58:01;;;;;;;20.93;15.73;;;;;;;20.13;100.00;101553.25;5028603;28;20240;-74
2023/06/29 07:00:27;;;;;;;19.40;15.80;;;;;;;20.19;100.00;101549.75;5010680;28;20699;-74
2023/06/29 07:02:52;;;;;;;19.23;16.27;;;;;;;20.11;100.00;101548.94;5027319;28;20186;-74
2023/06/29 07:05:18;;;;;;;19.17;15.53;;;;;;;20.14;100.00;101556.72;5035028;28;20558;-76
2023/06/29 07:07:46;;;;;;;19.50;16.30;;;;;;;20.20;100.00;101548.84;5042058;28;20221;-75
2023/06/29 07:10:12;;;;;;;17.40;15.37;;;;;;;20.26;100.00;101551.44;5023803;28;20276;-75
2023/06/29 07:12:37;;;;;;;23.27;15.53;;;;;;;20.38;100.00;101546.09;5027039;28;20214;-74
2023/06/29 07:15:03;;;;;;;17.63;15.03;;;;;;;20.45;100.00;101545.19;5029319;28;20192;-75
2023/06/29 07:17:30;;;;;;;20.23;16.70;;;;;;;20.40;100.00;101541.75;5012334;28;20560;-75
2023/06/29 07:19:56;;;;;;;19.70;16.20;;;;;;;20.49;100.00;101537.31;5033597;28;20214;-74
2023/06/29 07:22:21;;;;;;;23.80;16.70;;;;;;;20.60;100.00;101529.41;5034543;28;20212;-74
2023/06/29 07:24:46;;;;;;;21.87;16.80;;;;;;;20.54;100.00;101538.13;5027800;28;20277;-77
2023/06/29 07:27:12;;;;;;;18.90;16.30;;;;;;;20.43;100.00;101536.50;5029284;28;20324;-74
2023/06/29 07:29:38;;;;;;;25.10;16.83;;;;;;;20.51;100.00;101537.28;5028276;28;20178;-75
2023/06/29 07:32:04;;;;;;;21.33;16.40;;;;;;;20.59;100.00;101528.53;5028032;28;20269;-75
2023/06/29 07:34:30;;;;;;;21.43;17.03;;;;;;;20.64;100.00;101525.88;5038944;28;20698;-75
2023/06/29 07:36:55;;;;;;;22.13;16.80;;;;;;;20.74;100.00;101530.09;5025947;28;20210;-75
2023/06/29 07:39:21;;;;;;;22.67;16.87;;;;;;;20.84;100.00;101530.00;5026811;28;20245;-75
2023/06/29 07:41:48;;;;;;;20.10;15.83;;;;;;;21.06;100.00;101518.44;5032995;28;20284;-75
2023/06/29 07:44:14;;;;;;;24.77;17.27;;;;;;;21.03;100.00;101515.03;5029717;28;20194;-77
2023/06/29 07:46:39;;;;;;;23.23;17.30;;;;;;;20.93;100.00;101523.84;5039484;28;20209;-76
2023/06/29 07:49:05;;;;;;;23.67;17.17;;;;;;;20.97;100.00;101516.00;5038448;28;20189;-75
2023/06/29 07:51:32;;;;;;;24.47;17.90;;;;;;;21.03;100.00;101515.03;5028405;28;20273;-74
2023/06/29 07:54:00;;;;;;;23.37;18.27;;;;;;;20.96;100.00;101509.03;5035793;28;20284;-76
2023/06/29 07:56:26;;;;;;;21.47;17.57;;;;;;;20.98;100.00;101504.69;5026851;28;20215;-77
2023/06/29 07:58:51;;;;;;;21.97;16.37;;;;;;;21.39;100.00;101504.13;5028664;28;20695;-75
2023/06/29 08:01:17;;;;;;;23.50;16.80;;;;;;;21.54;100.00;101512.59;5027150;28;20205;-78
2023/06/29 08:03:44;;;;;;;20.70;15.87;;;;;;;21.83;100.00;101502.59;5028052;28;20194;-76
2023/06/29 08:06:10;;;;;;;23.13;17.13;;;;;;;21.77;100.00;101504.44;5029152;28;20276;-76
2023/06/29 08:08:36;;;;;;;27.80;17.40;;;;;;;21.78;100.00;101501.81;5029065;28;20740;-74
2023/06/29 08:11:02;;;;;;;24.40;17.77;;;;;;;21.80;100.00;101499.19;5025868;28;20926;-75
2023/06/29 08:13:27;;;;;;;24.47;16.97;;;;;;;21.89;100.00;101501.66;5037473;28;20201;-75
2023/06/29 08:15:53;;;;;;;24.43;17.20;;;;;;;21.98;100.00;101507.56;5017335;28;20194;-75
2023/06/29 08:18:18;;;;;;;22.03;17.57;;;;;;;21.93;100.00;101505.94;5028515;28;20210;-75
2023/06/29 08:20:46;;;;;;;19.67;15.57;;;;;;;22.13;100.00;101502.09;5029217;28;20210;-74
2023/06/29 08:23:12;;;;;;;19.30;15.83;;;;;;;22.30;100.00;101499.19;5029316;28;20230;-74
2023/06/29 08:25:37;;;;;;;25.40;17.83;;;;;;;22.11;100.00;101498.66;5031231;28;20252;-74
2023/06/29 08:28:03;;;;;;;22.87;15.67;;;;;;;22.73;100.00;101497.53;5030170;28;20214;-74
2023/06/29 08:30:28;;;;;;;23.30;16.63;;;;;;;22.95;100.00;101495.34;5028646;28;20202;-71
2023/06/29 08:32:54;;;;;;;22.10;16.90;;;;;;;23.16;100.00;101489.66;5030564;28;20194;-74
2023/06/29 08:35:19;;;;;;;21.27;15.57;;;;;;;23.46;100.00;101478.53;5029739;28;20293;-75
2023/06/29 08:37:45;;;;;;;23.03;15.47;;;;;;;23.44;100.00;101475.13;5029410;28;20207;-74
2023/06/29 08:40:11;;;;;;;22.27;16.10;;;;;;;23.41;100.00;101476.03;5038433;28;20214;-75
2023/06/29 08:42:37;;;;;;;22.53;15.77;;;;;;;23.28;100.00;101479.81;5026775;28;20198;-75
2023/06/29 08:45:05;;;;;;;25.57;17.23;;;;;;;23.24;100.00;101478.16;5012804;28;20206;-74
2023/06/29 08:47:33;;;;;;;22.63;16.40;;;;;;;23.46;100.00;101478.53;5026676;28;20727;-76
2023/06/29 08:50:00;;;;;;;25.30;17.50;;;;;;;23.18;100.00;101485.25;5031226;28;20286;-76
2023/06/29 08:52:31;;;;;;;23.73;17.63;;;;;;;23.13;100.00;101481.88;5023219;28;20210;-73
2023/06/29 08:54:57;;;;;;;25.00;16.27;;;;;;;23.12;100.00;101483.66;5024697;28;20195;-74
2023/06/29 08:57:24;;;;;;;22.80;15.17;;;;;;;23.67;100.00;101468.44;5024781;28;20230;-75
2023/06/29 08:59:50;;;;;;;20.40;15.38;;;;;;;24.12;100.00;101448.16;5022530;28;20222;-74
2023/06/29 09:02:16;;;;;;;23.42;15.95;;;;;;;23.86;100.00;101466.25;5024039;28;20314;-76
2023/06/29 09:04:44;;;;;;;24.73;16.00;;;;;;;23.75;100.00;101463.88;5030418;28;20282;-76
2023/06/29 09:07:10;;;;;;;23.45;16.52;;;;;;;23.68;100.00;101471.91;5025247;28;20223;-73
2023/06/29 09:09:35;;;;;;;27.88;17.30;;;;;;;23.26;100.00;101468.56;5028523;28;20231;-75
2023/06/29 09:12:01;;;;;;;24.13;16.20;;;;;;;23.35;100.00;101463.13;5023828;28;20229;-74
2023/06/29 09:14:28;;;;;;;22.03;17.27;;;;;;;23.51;100.00;101461.84;5029504;28;20274;-74
2023/06/29 09:17:01;;;;;;;28.43;16.83;;;;;;;23.81;100.00;101449.78;5033414;28;20582;-73
2023/06/29 09:19:27;;;;;;;21.52;16.08;;;;;;;23.81;100.00;101450.63;5018056;28;20237;-76
2023/06/29 09:21:52;;;;;;;28.63;20.52;;;;;;;23.65;100.00;101436.22;5029082;28;20675;-75
2023/06/29 09:24:19;;;;;;;25.07;18.43;;;;;;;23.90;100.00;101433.91;5030079;28;20206;-73
2023/06/29 09:26:48;;;;;;;27.80;17.73;;;;;;;24.18;100.00;101432.28;5028381;28;20222;-73
2023/06/29 09:29:14;;;;;;;28.70;17.65;;;;;;;24.16;100.00;101440.16;5027152;28;20673;-73
2023/06/29 09:31:39;;;;;;;25.35;18.30;;;;;;;24.20;100.00;101433.06;5024648;28;20230;-74
2023/06/29 09:34:22;;;;;;;29.85;19.45;;;;;;;24.23;100.00;101410.31;5031344;28;20289;-76
2023/06/29 09:36:48;;;;;;;27.30;17.73;;;;;;;24.47;100.00;101432.31;5028245;28;20220;-76
2023/06/29 09:39:15;;;;;;;30.27;19.10;;;;;;;24.39;100.00;101426.44;5009274;28;20225;-74
2023/06/29 09:41:58;;;;;;;25.48;16.83;;;;;;;24.67;100.00;101394.22;5029242;28;20893;-74
2023/06/29 09:44:25;;;;;;;25.25;17.67;;;;;;;24.40;100.00;101417.69;5027999;28;20240;-75
2023/06/29 09:47:05;;;;;;;27.08;17.75;;;;;;;24.70;100.00;101395.88;5024610;28;20206;-74
2023/06/29 09:49:31;;;;;;;26.45;17.83;;;;;;;24.77;100.00;101421.00;5029258;28;20616;-75
2023/06/29 09:52:04;;;;;;;28.20;16.10;;;;;;;25.34;100.00;101396.53;5018592;28;20199;-73
2023/06/29 09:54:35;;;;;;;29.75;17.20;;;;;;;25.46;100.00;101362.00;5027343;28;20212;-74
2023/06/29 09:57:04;;;;;;;30.25;18.00;;;;;;;25.02;100.00;101366.94;5028531;28;20680;-75
2023/06/29 09:59:34;;;;;;;22.90;15.50;;;;;;;24.91;100.00;101403.94;5024693;28;20229;-74
2023/06/29 10:02:00;;;;;;;25.83;18.45;;;;;;;24.60;100.00;101424.13;5022321;28;20194;-74
2023/06/29 10:04:25;;;;;;;28.63;17.80;;;;;;;24.77;100.00;101402.66;5027707;28;20671;-74
2023/06/29 10:07:05;;;;;;;26.63;17.27;;;;;;;24.91;100.00;101403.13;5032503;28;20643;-74
2023/06/29 10:09:35;;;;;;;27.70;17.58;;;;;;;25.14;100.00;101382.28;5013071;28;20194;-74
2023/06/29 10:12:02;;;;;;;25.17;18.70;;;;;;;24.96;100.00;101386.31;5012838;28;20222;-75
2023/06/29 10:14:27;;;;;;;22.63;16.80;;;;;;;25.65;100.00;101364.88;5026864;28;20220;-75
2023/06/29 10:16:54;;;;;;;23.77;16.23;;;;;;;25.91;100.00;101328.06;5020802;28;20218;-75
2023/06/29 10:19:23;;;;;;;23.30;16.25;;;;;;;26.08;100.00;101320.47;5028334;28;20206;-74
2023/06/29 10:22:14;;;;;;;21.95;15.60;;;;;;;26.11;100.00;101315.13;5024491;28;20218;-73
2023/06/29 10:24:47;;;;;;;23.42;16.33;;;;;;;25.38;100.00;101350.06;5012569;28;20234;-74
2023/06/29 10:27:14;;;;;;;23.80;17.17;;;;;;;24.65;100.00;101413.50;5029215;28;20224;-75
2023/06/29 10:29:47;;;;;;;24.20;15.95;;;;;;;25.28;100.00;101420.28;5026701;28;20208;-74
2023/06/29 10:32:33;;;;;;;21.80;16.35;;;;;;;25.40;100.00;101379.69;5009696;28;20187;-74
2023/06/29 10:35:07;;;;;;;25.98;17.35;;;;;;;25.32;100.00;101366.84;5024182;28;20205;-74
2023/06/29 10:37:38;;;;;;;24.70;17.98;;;;;;;24.88;100.00;101379.59;5027133;28;20218;-73
2023/06/29 10:40:28;;;;;;;25.33;17.77;;;;;;;25.00;100.00;101376.63;5027655;28;20218;-74
2023/06/29 10:42:55;;;;;;;26.15;18.50;;;;;;;24.86;100.00;101353.44;5020628;28;20285;-74
2023/06/29 10:45:21;;;;;;;27.27;19.23;;;;;;;24.81;100.00;101367.63;5010425;28;20272;-74
2023/06/29 10:47:56;;;;;;;26.92;18.38;;;;;;;25.02;100.00;101370.41;5026679;28;20699;-75
2023/06/29 10:50:28;;;;;;;25.75;18.80;;;;;;;24.87;100.00;101354.31;5028682;28;20253;-74
2023/06/29 10:52:58;;;;;;;29.65;19.52;;;;;;;24.66;100.00;101368.03;5024436;28;20191;-75
2023/06/29 10:55:26;;;;;;;26.58;19.52;;;;;;;24.73;100.00;101383.53;5013512;28;20206;-75
2023/06/29 10:57:54;;;;;;;27.40;17.65;;;;;;;24.63;100.00;101391.75;5021344;28;20214;-75
2023/06/29 11:00:21;;;;;;;27.95;17.65;;;;;;;24.21;100.00;101422.56;5027907;28;20301;-74